Time;durP1;ratioP1;P1;durP2;ratioP2;P2;SDS_P1;SDS_P2;PMS_P1;PMS_P2;Temp;Humidity;BMP_temperature;BMP_pressure;BME280_temperature;BME280_humidity;BME280_pressure;Samples;Min_cycle;Max_cycle;Signal;HPM_P1;HPM_P2
2023/03/20 00:00:47;;;;;;;12.93;12.23;;;12.00;44.70;;;;;;5078221;28;20444;-58
2023/03/20 00:03:13;;;;;;;11.90;11.40;;;11.90;45.40;;;;;;5085283;28;20497;-58
2023/03/20 00:05:39;;;;;;;10.87;10.43;;;11.70;46.60;;;;;;5087211;28;20479;-58
2023/03/20 00:08:05;;;;;;;11.47;10.83;;;11.80;46.60;;;;;;5077352;28;20420;-58
2023/03/20 00:10:42;;;;;;;11.40;10.90;;;11.90;46.70;;;;;;5103715;28;20972;-58
2023/03/20 00:13:21;;;;;;;11.63;11.13;;;12.10;45.90;;;;;;5083557;28;20411;-58
2023/03/20 00:15:47;;;;;;;12.07;11.53;;;12.20;45.40;;;;;;5102741;28;20907;-58
2023/03/20 00:18:17;;;;;;;11.03;10.37;;;12.30;43.70;;;;;;5084481;28;20414;-58
2023/03/20 00:20:46;;;;;;;10.80;10.33;;;12.40;43.10;;;;;;5085257;28;20276;-58
2023/03/20 00:23:12;;;;;;;11.13;10.73;;;12.40;42.40;;;;;;5083125;28;20431;-58
2023/03/20 00:25:39;;;;;;;10.70;10.30;;;12.40;42.00;;;;;;5085309;28;20460;-58
2023/03/20 00:28:24;;;;;;;10.70;10.30;;;12.20;42.20;;;;;;5082438;28;20413;-58
2023/03/20 00:30:50;;;;;;;10.77;10.27;;;11.90;43.20;;;;;;5087653;28;20458;-58
2023/03/20 00:33:16;;;;;;;11.10;10.70;;;11.90;43.00;;;;;;5084395;28;20443;-58
2023/03/20 00:35:41;;;;;;;11.40;10.93;;;11.90;43.60;;;;;;5084465;28;20419;-58
2023/03/20 00:38:08;;;;;;;12.37;11.77;;;11.80;45.70;;;;;;5082673;28;20574;-58
2023/03/20 00:40:33;;;;;;;11.40;10.90;;;11.90;45.10;;;;;;5084795;28;20236;-58
2023/03/20 00:43:02;;;;;;;11.27;10.77;;;11.90;45.30;;;;;;5082165;28;20450;-58
2023/03/20 00:45:29;;;;;;;11.87;11.37;;;12.00;45.10;;;;;;5087885;28;20588;-58
2023/03/20 00:47:56;;;;;;;11.73;11.20;;;11.90;44.50;;;;;;5099039;28;20416;-57
2023/03/20 00:50:28;;;;;;;10.87;10.27;;;11.70;44.60;;;;;;5107247;28;20466;-58
2023/03/20 00:52:56;;;;;;;10.90;10.03;;;11.60;44.70;;;;;;5106371;28;20515;-58
2023/03/20 00:55:24;;;;;;;10.20;9.80;;;11.50;45.10;;;;;;5081151;28;21011;-58
2023/03/20 00:57:59;;;;;;;9.93;9.53;;;11.50;45.40;;;;;;5088435;28;20407;-58
2023/03/20 01:00:29;;;;;;;10.30;9.90;;;11.40;45.50;;;;;;5084900;28;20512;-59
2023/03/20 01:02:56;;;;;;;10.03;9.70;;;11.40;45.40;;;;;;5087382;28;20495;-60
2023/03/20 01:05:23;;;;;;;10.50;10.10;;;11.40;45.60;;;;;;5084649;28;20420;-59
2023/03/20 01:07:49;;;;;;;9.97;9.60;;;11.60;45.50;;;;;;5085194;28;20407;-59
2023/03/20 01:10:16;;;;;;;9.53;9.23;;;11.70;44.50;;;;;;5075330;28;20429;-60
2023/03/20 01:12:43;;;;;;;9.00;8.70;;;11.80;43.30;;;;;;5082454;28;20420;-59
2023/03/20 01:15:17;;;;;;;10.37;9.97;;;11.90;43.30;;;;;;5081220;28;20459;-59
2023/03/20 01:17:44;;;;;;;10.07;9.63;;;12.10;43.50;;;;;;5078748;28;20782;-60
2023/03/20 01:20:17;;;;;;;9.87;9.47;;;12.20;42.80;;;;;;5082221;28;20474;-59
2023/03/20 01:22:43;;;;;;;10.27;9.87;;;12.30;42.20;;;;;;5084206;28;20525;-60
2023/03/20 01:25:10;;;;;;;10.50;10.10;;;12.30;41.70;;;;;;5085467;28;20424;-59
2023/03/20 01:27:35;;;;;;;9.87;9.57;;;12.50;41.40;;;;;;5079272;28;20419;-59
2023/03/20 01:30:01;;;;;;;10.47;10.07;;;12.50;41.30;;;;;;5080980;28;21227;-60
2023/03/20 01:32:28;;;;;;;10.40;10.00;;;12.50;41.30;;;;;;5083496;28;20257;-59
2023/03/20 01:34:54;;;;;;;10.50;10.10;;;12.50;41.40;;;;;;5097558;28;20499;-59
2023/03/20 01:37:27;;;;;;;9.97;9.63;;;12.50;42.10;;;;;;5103611;28;20304;-60
2023/03/20 01:39:54;;;;;;;10.20;9.63;;;12.40;40.60;;;;;;5087453;28;20182;-59
2023/03/20 01:42:20;;;;;;;11.50;11.00;;;12.40;40.80;;;;;;5080550;28;20599;-59
2023/03/20 01:44:47;;;;;;;11.17;10.57;;;12.20;41.70;;;;;;5102863;28;20508;-59
2023/03/20 01:47:22;;;;;;;10.27;9.93;;;12.10;42.20;;;;;;5081888;28;20935;-58
2023/03/20 01:50:23;;;;;;;10.80;10.37;;;11.90;41.90;;;;;;5085398;28;20420;-58
2023/03/20 01:52:57;;;;;;;10.30;9.90;;;11.90;42.50;;;;;;5082443;28;20477;-58
2023/03/20 01:55:24;;;;;;;10.47;10.07;;;11.90;42.20;;;;;;5080783;28;20551;-58
2023/03/20 01:57:52;;;;;;;11.40;10.87;;;12.00;43.10;;;;;;5103312;28;20412;-58
2023/03/20 02:00:18;;;;;;;10.80;10.43;;;12.00;43.40;;;;;;5081089;28;20420;-58
2023/03/20 02:02:46;;;;;;;11.27;10.77;;;12.10;42.20;;;;;;5084219;28;20423;-58
2023/03/20 02:05:15;;;;;;;10.53;10.13;;;12.20;41.70;;;;;;5083270;28;20420;-58
2023/03/20 02:07:42;;;;;;;9.83;9.53;;;12.20;40.70;;;;;;5083251;28;20445;-58
2023/03/20 02:10:11;;;;;;;10.40;10.03;;;12.20;40.70;;;;;;5081063;28;20405;-58
2023/03/20 02:12:37;;;;;;;10.20;9.90;;;11.80;41.80;;;;;;5083610;28;20463;-59
2023/03/20 02:15:05;;;;;;;9.60;9.30;;;11.50;42.20;;;;;;5080336;28;20775;-59
2023/03/20 02:17:32;;;;;;;10.90;10.50;;;11.30;43.00;;;;;;5077334;28;20935;-59
2023/03/20 02:20:09;;;;;;;9.77;9.47;;;11.10;44.10;;;;;;5082727;28;20413;-59
2023/03/20 02:23:13;;;;;;;9.90;9.50;;;10.90;44.60;;;;;;5078066;28;21152;-59
2023/03/20 02:25:38;;;;;;;10.30;9.93;;;10.80;45.90;;;;;;5070351;28;20475;-59
2023/03/20 02:28:10;;;;;;;9.10;8.80;;;10.70;46.50;;;;;;5072396;28;20466;-59
2023/03/20 02:30:47;;;;;;;9.23;8.83;;;10.60;46.50;;;;;;5101590;28;20220;-59
2023/03/20 02:33:37;;;;;;;9.20;8.90;;;10.70;47.10;;;;;;5082393;28;20424;-59
2023/03/20 02:36:21;;;;;;;9.33;8.93;;;10.70;46.70;;;;;;5080630;28;20424;-59
2023/03/20 02:39:14;;;;;;;9.10;8.80;;;10.70;46.80;;;;;;5078911;28;20451;-59
2023/03/20 02:42:14;;;;;;;8.97;8.67;;;10.70;46.80;;;;;;5082260;28;20416;-59
2023/03/20 02:45:15;;;;;;;8.50;8.20;;;10.70;46.50;;;;;;5082004;28;20427;-59
2023/03/20 02:47:53;;;;;;;8.70;8.40;;;10.70;46.60;;;;;;5077836;28;20417;-59
2023/03/20 02:50:37;;;;;;;8.07;7.83;;;10.60;46.10;;;;;;5078813;28;20770;-59
2023/03/20 02:53:23;;;;;;;8.27;8.07;;;10.60;46.00;;;;;;5086281;28;20552;-59
2023/03/20 02:56:17;;;;;;;8.50;8.20;;;10.60;45.20;;;;;;5078882;28;20936;-59
2023/03/20 02:58:59;;;;;;;8.13;7.93;;;10.60;44.80;;;;;;5091404;28;20429;-59
2023/03/20 03:01:37;;;;;;;8.67;8.27;;;10.70;44.20;;;;;;5074096;28;20455;-59
2023/03/20 03:04:22;;;;;;;7.97;7.77;;;10.70;44.40;;;;;;5078012;28;20768;-59
2023/03/20 03:06:51;;;;;;;8.53;8.33;;;10.90;43.80;;;;;;5077935;28;20436;-59
2023/03/20 03:09:23;;;;;;;8.03;7.83;;;10.70;44.00;;;;;;5081234;28;20519;-60
2023/03/20 03:11:58;;;;;;;7.90;7.70;;;10.80;43.80;;;;;;5080754;28;20862;-60
2023/03/20 03:14:49;;;;;;;8.53;8.33;;;10.70;43.70;;;;;;5077723;28;20412;-59
2023/03/20 03:17:17;;;;;;;8.97;8.67;;;10.70;43.80;;;;;;5079375;28;20942;-60
2023/03/20 03:19:48;;;;;;;8.83;8.63;;;10.70;44.30;;;;;;5082341;28;20466;-60
2023/03/20 03:22:15;;;;;;;8.27;8.07;;;10.60;44.70;;;;;;5080554;28;20519;-60
2023/03/20 03:24:47;;;;;;;8.83;8.63;;;10.50;44.40;;;;;;5081638;28;20436;-60
2023/03/20 03:27:27;;;;;;;9.53;9.23;;;10.50;44.70;;;;;;5079709;28;20908;-60
2023/03/20 03:30:00;;;;;;;8.73;8.43;;;10.40;44.40;;;;;;5079355;28;20530;-60
2023/03/20 03:32:34;;;;;;;8.80;8.50;;;10.40;44.90;;;;;;5087373;28;20460;-60
2023/03/20 03:35:02;;;;;;;8.87;8.57;;;10.40;45.40;;;;;;5075000;28;20408;-60
2023/03/20 03:37:39;;;;;;;9.00;8.70;;;10.40;45.30;;;;;;5082523;28;20460;-60
2023/03/20 03:40:22;;;;;;;8.67;8.47;;;10.40;45.20;;;;;;5077513;28;20407;-59
2023/03/20 03:42:50;;;;;;;8.23;7.97;;;10.40;45.70;;;;;;5071103;28;20774;-60
2023/03/20 03:45:25;;;;;;;8.40;8.20;;;10.40;45.20;;;;;;5085625;28;20815;-60
2023/03/20 03:48:00;;;;;;;7.90;7.70;;;10.50;44.80;;;;;;5096559;28;20435;-60
2023/03/20 03:50:52;;;;;;;8.27;8.07;;;10.60;44.50;;;;;;5076434;28;20487;-60
2023/03/20 03:53:25;;;;;;;8.30;8.10;;;10.70;43.70;;;;;;5085195;28;20416;-60
2023/03/20 03:55:59;;;;;;;8.83;8.63;;;10.70;43.70;;;;;;5078032;28;20425;-60
2023/03/20 03:58:39;;;;;;;9.40;9.10;;;10.70;43.20;;;;;;5078741;28;20466;-59
2023/03/20 04:01:06;;;;;;;8.60;8.30;;;10.80;43.60;;;;;;5079222;28;20792;-60
2023/03/20 04:03:36;;;;;;;8.70;8.40;;;10.80;42.30;;;;;;5074714;28;20427;-59
2023/03/20 04:06:03;;;;;;;7.90;7.70;;;10.90;42.40;;;;;;5086211;28;20432;-59
2023/03/20 04:08:29;;;;;;;7.93;7.73;;;11.00;41.80;;;;;;5077979;28;20474;-60
2023/03/20 04:10:54;;;;;;;8.87;8.40;;;11.00;41.90;;;;;;5083240;28;20811;-60
2023/03/20 04:13:20;;;;;;;9.33;9.03;;;10.90;41.70;;;;;;5082153;28;20229;-60
2023/03/20 04:15:46;;;;;;;9.13;8.70;;;10.80;42.30;;;;;;5081900;28;20186;-61
2023/03/20 04:18:16;;;;;;;8.50;8.30;;;10.80;42.30;;;;;;5080223;28;20225;-60
2023/03/20 04:20:43;;;;;;;8.83;8.43;;;10.80;42.50;;;;;;5085701;28;20197;-60
2023/03/20 04:23:09;;;;;;;9.30;9.00;;;10.60;42.30;;;;;;5079792;28;20551;-60
2023/03/20 04:25:34;;;;;;;8.90;8.60;;;10.60;42.70;;;;;;5076545;28;20507;-60
2023/03/20 04:28:00;;;;;;;8.80;8.40;;;10.60;43.20;;;;;;5078091;28;20183;-61
2023/03/20 04:30:26;;;;;;;8.30;8.00;;;10.70;43.70;;;;;;5099633;28;20216;-59
2023/03/20 04:32:52;;;;;;;9.40;9.10;;;10.70;43.90;;;;;;5085053;28;20178;-59
2023/03/20 04:35:17;;;;;;;8.50;8.30;;;10.70;43.40;;;;;;5080251;28;20553;-59
2023/03/20 04:37:43;;;;;;;8.70;8.40;;;10.70;43.30;;;;;;5075553;28;20305;-59
2023/03/20 04:40:09;;;;;;;9.30;8.73;;;10.80;43.00;;;;;;5086536;28;20178;-60
2023/03/20 04:42:35;;;;;;;9.17;8.77;;;10.80;42.80;;;;;;5080800;28;20704;-60
2023/03/20 04:45:01;;;;;;;8.20;7.90;;;10.90;42.40;;;;;;5076219;28;20482;-59
2023/03/20 04:47:26;;;;;;;9.20;8.90;;;10.90;42.40;;;;;;5081261;28;20186;-59
2023/03/20 04:49:52;;;;;;;8.70;8.43;;;10.80;42.30;;;;;;5083738;28;20258;-59
2023/03/20 04:52:17;;;;;;;8.97;8.47;;;10.90;42.40;;;;;;5084626;28;20206;-60
2023/03/20 04:54:43;;;;;;;9.40;9.10;;;10.90;42.40;;;;;;5085554;28;20202;-60
2023/03/20 04:57:09;;;;;;;9.40;8.93;;;10.90;42.80;;;;;;5083609;28;20622;-60
2023/03/20 04:59:34;;;;;;;9.53;9.23;;;10.90;42.40;;;;;;5084293;28;20539;-60
2023/03/20 05:02:00;;;;;;;9.27;8.93;;;11.00;42.80;;;;;;5075670;28;20631;-60
2023/03/20 05:04:26;;;;;;;8.47;8.17;;;11.10;42.60;;;;;;5083979;28;20182;-60
2023/03/20 05:06:52;;;;;;;10.30;10.00;;;11.30;41.70;;;;;;5102932;28;20194;-60
2023/03/20 05:09:17;;;;;;;9.40;9.10;;;11.40;41.20;;;;;;5100621;28;20424;-60
2023/03/20 05:11:43;;;;;;;9.40;9.13;;;11.30;41.00;;;;;;5084111;28;20211;-60
2023/03/20 05:14:10;;;;;;;9.13;8.73;;;11.10;41.70;;;;;;5082960;28;20211;-60
2023/03/20 05:16:36;;;;;;;8.63;8.43;;;11.00;42.50;;;;;;5084108;28;20700;-60
2023/03/20 05:19:02;;;;;;;8.90;8.60;;;10.80;42.60;;;;;;5088358;28;20511;-60
2023/03/20 05:21:28;;;;;;;8.87;8.67;;;10.80;43.20;;;;;;5078974;28;20507;-60
2023/03/20 05:23:53;;;;;;;9.20;8.93;;;10.70;43.90;;;;;;5085639;28;20178;-59
2023/03/20 05:26:19;;;;;;;9.00;8.70;;;10.60;44.30;;;;;;5090240;28;20204;-60
2023/03/20 05:28:45;;;;;;;10.27;9.70;;;10.60;44.70;;;;;;5091316;28;20194;-60
2023/03/20 05:31:11;;;;;;;8.63;8.33;;;10.60;44.80;;;;;;5093079;28;20613;-58
2023/03/20 05:33:37;;;;;;;8.87;8.50;;;10.60;43.90;;;;;;5092800;28;20178;-57
2023/03/20 05:36:03;;;;;;;9.20;8.77;;;10.60;44.00;;;;;;5087118;28;20179;-59
2023/03/20 05:38:29;;;;;;;9.83;9.43;;;10.50;44.60;;;;;;5089015;28;20769;-58
2023/03/20 05:40:57;;;;;;;9.23;8.83;;;10.50;44.80;;;;;;5072012;28;20438;-59
2023/03/20 05:43:23;;;;;;;8.60;8.30;;;10.60;44.80;;;;;;5071980;28;20476;-59
2023/03/20 05:45:48;;;;;;;8.53;8.33;;;10.60;43.90;;;;;;5072002;28;20475;-59
2023/03/20 05:48:14;;;;;;;9.20;8.90;;;10.70;43.90;;;;;;5072807;28;20179;-59
2023/03/20 05:50:40;;;;;;;9.83;9.33;;;10.70;43.40;;;;;;5072925;28;20203;-59
2023/03/20 05:53:06;;;;;;;9.03;8.67;;;10.70;43.40;;;;;;5073093;28;20182;-59
2023/03/20 05:55:32;;;;;;;9.43;9.00;;;10.80;43.80;;;;;;5072654;28;20668;-59
2023/03/20 05:57:57;;;;;;;9.57;9.10;;;10.90;43.20;;;;;;5072099;28;20453;-59
2023/03/20 06:00:23;;;;;;;10.07;9.77;;;10.90;43.10;;;;;;5071948;28;20182;-59
2023/03/20 06:02:49;;;;;;;9.80;9.50;;;10.80;43.20;;;;;;5072611;28;20729;-59
2023/03/20 06:05:15;;;;;;;9.60;9.23;;;10.80;43.00;;;;;;5072140;28;20174;-59
2023/03/20 06:07:40;;;;;;;9.10;8.80;;;10.70;43.70;;;;;;5073007;28;20178;-59
2023/03/20 06:10:07;;;;;;;8.87;8.47;;;10.70;43.90;;;;;;5072433;28;20923;-59
2023/03/20 06:12:32;;;;;;;9.10;8.70;;;10.60;44.20;;;;;;5071181;28;20279;-59
2023/03/20 06:14:58;;;;;;;9.23;8.93;;;10.50;43.50;;;;;;5072048;28;20417;-59
2023/03/20 06:17:24;;;;;;;11.10;9.90;;;10.50;44.20;;;;;;5071476;28;20182;-59
2023/03/20 06:19:49;;;;;;;8.30;8.00;;;10.60;44.60;;;;;;5071547;28;20175;-59
2023/03/20 06:22:15;;;;;;;9.43;9.03;;;10.60;43.50;;;;;;5071718;28;20197;-57
2023/03/20 06:24:42;;;;;;;9.03;8.73;;;10.80;43.70;;;;;;5066501;28;20306;-58
2023/03/20 06:27:08;;;;;;;9.30;9.00;;;10.90;42.40;;;;;;5069633;28;20175;-57
2023/03/20 06:29:33;;;;;;;9.13;8.70;;;11.00;42.50;;;;;;5070226;28;20433;-57
2023/03/20 06:31:59;;;;;;;10.67;9.80;;;11.00;42.50;;;;;;5068549;28;20309;-57
2023/03/20 06:34:25;;;;;;;9.80;9.27;;;11.00;41.90;;;;;;5088207;28;20171;-56
2023/03/20 06:36:51;;;;;;;9.30;8.90;;;11.10;41.50;;;;;;5070292;28;20270;-57
2023/03/20 06:39:16;;;;;;;8.77;8.37;;;11.10;40.80;;;;;;5087739;28;20409;-58
2023/03/20 06:41:42;;;;;;;8.60;8.30;;;11.20;40.50;;;;;;5069889;28;20178;-56
2023/03/20 06:44:08;;;;;;;8.87;8.47;;;11.20;40.20;;;;;;5069658;28;20185;-57
2023/03/20 06:46:33;;;;;;;9.17;8.87;;;11.10;40.50;;;;;;5087325;28;20174;-57
2023/03/20 06:49:00;;;;;;;9.20;8.73;;;11.20;40.40;;;;;;5069566;28;20174;-55
2023/03/20 06:51:25;;;;;;;9.30;9.00;;;11.10;39.70;;;;;;5069789;28;20565;-57
2023/03/20 06:53:51;;;;;;;9.07;8.77;;;11.00;40.40;;;;;;5069366;28;20408;-57
2023/03/20 06:56:17;;;;;;;9.57;9.27;;;11.00;40.50;;;;;;5068833;28;20182;-56
2023/03/20 06:58:42;;;;;;;9.97;9.60;;;11.00;40.00;;;;;;5068569;28;20187;-57
2023/03/20 07:01:10;;;;;;;8.90;8.60;;;11.10;40.50;;;;;;5068102;28;20174;-55
2023/03/20 07:03:36;;;;;;;9.50;9.10;;;11.20;40.70;;;;;;5069155;28;20186;-57
2023/03/20 07:06:01;;;;;;;9.83;9.33;;;11.30;40.00;;;;;;5068663;28;20417;-57
2023/03/20 07:08:28;;;;;;;9.10;8.80;;;11.30;39.50;;;;;;5069827;28;20175;-57
2023/03/20 07:10:53;;;;;;;9.30;8.90;;;11.20;39.80;;;;;;5069627;28;20454;-50
2023/03/20 07:13:19;;;;;;;9.50;9.10;;;11.20;39.70;;;;;;5070302;28;20904;-61
2023/03/20 07:15:45;;;;;;;9.10;8.80;;;11.30;39.20;;;;;;5069688;28;20175;-52
2023/03/20 07:18:11;;;;;;;9.53;9.23;;;11.30;39.30;;;;;;5070721;28;20516;-59
2023/03/20 07:20:36;;;;;;;9.00;8.60;;;11.30;39.60;;;;;;5070398;28;20193;-53
2023/03/20 07:23:02;;;;;;;8.10;7.70;;;11.40;39.40;;;;;;5070406;28;20185;-55
2023/03/20 07:25:27;;;;;;;9.63;9.30;;;11.30;39.40;;;;;;5070150;28;20538;-57
2023/03/20 07:27:53;;;;;;;8.93;8.43;;;11.10;40.20;;;;;;5086697;28;20207;-56
2023/03/20 07:30:19;;;;;;;8.80;8.40;;;11.20;40.00;;;;;;5087801;28;20217;-54
2023/03/20 07:32:47;;;;;;;8.70;8.40;;;11.20;40.10;;;;;;5053451;28;20742;-56
2023/03/20 07:35:12;;;;;;;8.63;8.10;;;11.20;40.20;;;;;;5069731;28;20432;-56
2023/03/20 07:37:38;;;;;;;9.37;9.03;;;11.30;40.50;;;;;;5069800;28;20466;-55
2023/03/20 07:40:04;;;;;;;9.07;8.57;;;11.40;40.40;;;;;;5070446;28;20224;-58
2023/03/20 07:42:30;;;;;;;8.80;8.40;;;11.40;40.40;;;;;;5070094;28;20188;-55
2023/03/20 07:44:56;;;;;;;8.10;7.80;;;11.60;39.80;;;;;;5069730;28;20795;-58
2023/03/20 07:47:21;;;;;;;8.60;8.30;;;11.60;39.70;;;;;;5069483;28;20239;-57
2023/03/20 07:49:47;;;;;;;8.50;8.20;;;11.60;39.30;;;;;;5069654;28;20218;-57
2023/03/20 07:52:13;;;;;;;8.90;8.60;;;11.60;38.80;;;;;;5070499;28;20206;-56
2023/03/20 07:54:38;;;;;;;9.17;8.80;;;11.70;38.30;;;;;;5069670;28;20852;-56
2023/03/20 07:57:04;;;;;;;9.70;9.20;;;11.60;38.20;;;;;;5070143;28;20171;-57
2023/03/20 07:59:31;;;;;;;9.10;8.70;;;11.60;39.00;;;;;;5069651;28;20182;-57
2023/03/20 08:01:56;;;;;;;8.53;8.23;;;11.80;39.10;;;;;;5069448;28;20676;-57
2023/03/20 08:04:22;;;;;;;9.10;8.53;;;11.90;38.10;;;;;;5070133;28;20420;-57
2023/03/20 08:06:49;;;;;;;9.20;8.80;;;11.90;38.40;;;;;;5069968;28;20769;-58
2023/03/20 08:09:15;;;;;;;9.43;9.07;;;12.00;38.30;;;;;;5087640;28;20186;-57
2023/03/20 08:11:41;;;;;;;10.67;10.00;;;12.00;37.40;;;;;;5069277;28;20463;-56
2023/03/20 08:14:07;;;;;;;9.10;8.60;;;11.80;37.80;;;;;;5069123;28;20546;-58
2023/03/20 08:16:33;;;;;;;8.50;8.20;;;11.70;38.50;;;;;;5069511;28;20428;-59
2023/03/20 08:19:00;;;;;;;9.33;8.93;;;11.90;38.60;;;;;;5069403;28;20818;-59
2023/03/20 08:21:30;;;;;;;9.70;9.20;;;12.00;37.90;;;;;;5070283;28;20174;-58
2023/03/20 08:23:56;;;;;;;9.40;9.10;;;12.00;37.10;;;;;;5070844;28;20417;-58
2023/03/20 08:26:23;;;;;;;9.80;9.40;;;11.80;37.00;;;;;;5074022;28;20780;-58
2023/03/20 08:28:48;;;;;;;9.33;8.97;;;11.70;37.00;;;;;;5072677;28;20444;-59
2023/03/20 08:31:16;;;;;;;9.03;8.63;;;11.70;37.10;;;;;;5072636;28;20467;-58
2023/03/20 08:33:43;;;;;;;9.33;8.87;;;11.70;36.90;;;;;;5073571;28;20175;-58
2023/03/20 08:36:09;;;;;;;9.80;9.30;;;11.70;37.20;;;;;;5073749;28;20415;-58
2023/03/20 08:38:34;;;;;;;10.50;10.10;;;11.70;37.50;;;;;;5073001;28;20417;-58
2023/03/20 08:41:00;;;;;;;9.87;9.53;;;11.70;37.30;;;;;;5073455;28;20232;-57
2023/03/20 08:43:26;;;;;;;10.40;10.00;;;11.70;37.40;;;;;;5072127;28;20553;-56
2023/03/20 08:45:52;;;;;;;9.90;9.60;;;11.80;37.20;;;;;;5073374;28;20274;-55
2023/03/20 08:48:17;;;;;;;9.50;9.20;;;11.70;37.30;;;;;;5072781;28;20174;-57
2023/03/20 08:50:43;;;;;;;9.60;9.30;;;11.70;37.80;;;;;;5073075;28;20983;-56
2023/03/20 08:53:09;;;;;;;9.40;9.03;;;11.80;37.30;;;;;;5073194;28;20265;-56
2023/03/20 08:55:35;;;;;;;9.77;9.37;;;11.80;37.10;;;;;;5073427;28;20420;-55
2023/03/20 08:58:00;;;;;;;9.20;8.90;;;11.90;37.10;;;;;;5072949;28;20174;-56
2023/03/20 09:00:26;;;;;;;9.60;9.00;;;12.00;37.10;;;;;;5072680;28;20668;-57
2023/03/20 09:02:52;;;;;;;8.97;8.67;;;12.00;36.50;;;;;;5073497;28;20182;-57
2023/03/20 09:05:18;;;;;;;9.53;9.13;;;12.10;36.50;;;;;;5072837;28;20630;-57
2023/03/20 09:07:44;;;;;;;10.07;9.67;;;12.20;35.50;;;;;;5072851;28;20413;-58
2023/03/20 09:10:10;;;;;;;9.50;9.20;;;12.20;34.60;;;;;;5072727;28;20178;-58
2023/03/20 09:12:36;;;;;;;9.97;9.57;;;12.20;34.30;;;;;;5072687;28;20464;-58
2023/03/20 09:15:03;;;;;;;10.30;9.90;;;12.30;34.70;;;;;;5072475;28;20413;-58
2023/03/20 09:17:30;;;;;;;9.67;9.27;;;12.30;34.70;;;;;;5072416;28;20182;-58
2023/03/20 09:19:56;;;;;;;10.07;9.77;;;12.30;33.70;;;;;;5072625;28;20413;-58
2023/03/20 09:22:22;;;;;;;9.60;9.20;;;12.30;33.60;;;;;;5072099;28;20726;-57
2023/03/20 09:24:48;;;;;;;9.67;9.37;;;12.50;33.70;;;;;;5071970;28;20417;-57
2023/03/20 09:27:13;;;;;;;10.03;9.73;;;12.50;33.10;;;;;;5090184;28;20415;-59
2023/03/20 09:29:40;;;;;;;10.20;9.70;;;12.50;31.90;;;;;;5090011;28;20190;-58
2023/03/20 09:32:06;;;;;;;10.00;9.60;;;12.50;32.40;;;;;;5071945;28;20198;-58
2023/03/20 09:34:32;;;;;;;9.90;9.50;;;12.50;32.10;;;;;;5072069;28;20417;-58
2023/03/20 09:36:58;;;;;;;10.03;9.73;;;12.60;32.00;;;;;;5071440;28;20432;-58
2023/03/20 09:39:23;;;;;;;9.70;9.20;;;12.50;31.50;;;;;;5072442;28;20698;-58
2023/03/20 09:41:50;;;;;;;9.20;8.90;;;12.50;32.30;;;;;;5072206;28;20563;-58
2023/03/20 09:44:41;;;;;;;10.50;9.97;;;12.60;32.80;;;;;;5071696;28;20270;-58
2023/03/20 09:47:29;;;;;;;9.33;9.03;;;12.50;32.50;;;;;;5072154;28;20423;-58
2023/03/20 09:50:10;;;;;;;10.37;9.97;;;12.70;32.50;;;;;;5090490;28;20774;-58
2023/03/20 09:52:44;;;;;;;9.80;9.50;;;12.70;30.90;;;;;;5069044;28;20468;-58
2023/03/20 09:55:18;;;;;;;10.80;10.40;;;12.80;30.80;;;;;;5068201;28;20458;-57
2023/03/20 09:57:53;;;;;;;9.57;9.27;;;12.70;31.60;;;;;;5070844;28;20413;-57
2023/03/20 10:00:23;;;;;;;9.87;9.27;;;12.60;31.70;;;;;;5071716;28;20409;-50
2023/03/20 10:03:02;;;;;;;9.70;9.30;;;12.60;32.10;;;;;;5072200;28;20943;-57
2023/03/20 10:05:43;;;;;;;10.77;10.27;;;12.80;31.70;;;;;;5070733;28;20415;-57
2023/03/20 10:08:15;;;;;;;10.20;9.70;;;12.80;30.60;;;;;;5071111;28;20413;-55
2023/03/20 10:11:00;;;;;;;10.83;10.47;;;12.80;29.90;;;;;;5071564;28;20460;-55
2023/03/20 10:13:58;;;;;;;10.80;10.30;;;12.90;29.60;;;;;;5071461;28;20409;-59
2023/03/20 10:16:31;;;;;;;10.10;9.80;;;13.00;30.40;;;;;;5070025;28;20408;-59
2023/03/20 10:19:09;;;;;;;9.47;9.07;;;13.00;31.20;;;;;;5089337;28;20396;-58
2023/03/20 10:21:48;;;;;;;9.37;8.97;;;13.10;29.90;;;;;;5072447;28;20471;-58
2023/03/20 10:25:00;;;;;;;8.73;8.43;;;13.00;30.00;;;;;;5070848;28;20447;-58
2023/03/20 10:27:33;;;;;;;9.50;9.10;;;13.10;29.40;;;;;;5067538;28;20870;-58
2023/03/20 10:30:22;;;;;;;10.23;9.77;;;12.90;29.70;;;;;;5071044;28;20456;-58
2023/03/20 10:33:23;;;;;;;8.90;8.60;;;12.90;29.90;;;;;;5066781;28;20421;-56
2023/03/20 10:35:58;;;;;;;8.90;8.60;;;13.00;30.00;;;;;;5085281;28;20757;-57
2023/03/20 10:38:50;;;;;;;9.13;8.43;;;13.20;30.60;;;;;;5069842;28;20419;-56
2023/03/20 10:41:19;;;;;;;9.37;8.90;;;13.30;30.00;;;;;;5087452;28;20528;-57
2023/03/20 10:43:48;;;;;;;8.17;7.87;;;13.40;30.20;;;;;;5071069;28;20417;-57
2023/03/20 10:46:24;;;;;;;8.67;8.33;;;13.40;29.80;;;;;;5070947;28;20409;-59
2023/03/20 10:48:56;;;;;;;8.40;8.10;;;13.40;30.40;;;;;;5069060;28;20816;-58
2023/03/20 10:51:30;;;;;;;8.40;8.00;;;13.40;29.70;;;;;;5067714;28;20472;-56
2023/03/20 10:54:01;;;;;;;7.60;7.20;;;13.40;30.00;;;;;;5068801;28;20420;-57
2023/03/20 10:56:36;;;;;;;7.70;7.40;;;13.40;30.00;;;;;;5068321;28;20409;-57
2023/03/20 10:59:15;;;;;;;8.23;7.83;;;13.40;30.00;;;;;;5068257;28;20412;-57
2023/03/20 11:01:40;;;;;;;7.80;7.50;;;13.40;29.90;;;;;;5085955;28;20420;-57
2023/03/20 11:04:06;;;;;;;8.93;8.50;;;13.40;30.30;;;;;;5069513;28;20447;-56
2023/03/20 11:06:58;;;;;;;8.27;7.97;;;13.50;30.10;;;;;;5069925;28;20185;-57
2023/03/20 11:09:29;;;;;;;8.83;8.53;;;13.40;30.00;;;;;;5086715;28;20174;-57
2023/03/20 11:12:00;;;;;;;9.43;8.83;;;13.50;30.20;;;;;;5068850;28;20832;-57
2023/03/20 11:14:36;;;;;;;10.70;10.20;;;13.50;29.90;;;;;;5070749;28;20750;-57
2023/03/20 11:17:03;;;;;;;11.30;10.80;;;13.50;30.70;;;;;;5069888;28;20408;-57
2023/03/20 11:19:35;;;;;;;11.07;10.57;;;13.50;31.00;;;;;;5070167;28;20417;-57
2023/03/20 11:22:08;;;;;;;10.80;10.30;;;13.50;31.00;;;;;;5068889;28;20947;-57
2023/03/20 11:24:41;;;;;;;10.77;10.20;;;13.50;30.80;;;;;;5068133;28;20751;-57
2023/03/20 11:27:16;;;;;;;14.00;13.10;;;13.40;30.90;;;;;;5066067;28;20425;-57
2023/03/20 11:29:45;;;;;;;12.17;11.47;;;13.40;31.60;;;;;;5070032;28;20445;-57
2023/03/20 11:32:24;;;;;;;12.13;11.53;;;13.40;31.70;;;;;;5069687;28;20520;-57
2023/03/20 11:34:50;;;;;;;11.40;10.70;;;13.40;31.80;;;;;;5070917;28;20511;-59
2023/03/20 11:37:28;;;;;;;14.23;13.23;;;13.30;31.40;;;;;;5070391;28;20761;-59
2023/03/20 11:40:22;;;;;;;15.87;14.57;;;13.40;31.70;;;;;;5069916;28;20405;-59
2023/03/20 11:42:59;;;;;;;11.60;10.97;;;13.40;31.00;;;;;;5085615;28;20432;-58
2023/03/20 11:45:25;;;;;;;13.17;12.20;;;13.40;30.70;;;;;;5088416;28;20996;-56
2023/03/20 11:47:54;;;;;;;12.73;11.97;;;13.40;30.30;;;;;;5068034;28;20416;-57
2023/03/20 11:50:36;;;;;;;12.30;11.60;;;13.30;30.00;;;;;;5068863;28;20405;-57
2023/03/20 11:53:16;;;;;;;10.57;10.07;;;13.30;30.10;;;;;;5068433;28;20940;-57
2023/03/20 11:55:42;;;;;;;11.77;11.27;;;13.30;30.70;;;;;;5069627;28;20448;-57
2023/03/20 11:58:15;;;;;;;12.00;11.40;;;13.30;30.60;;;;;;5087470;28;20444;-58
2023/03/20 12:00:41;;;;;;;13.60;12.80;;;13.40;30.50;;;;;;5073542;28;20897;-58
2023/03/20 12:03:43;;;;;;;14.53;13.70;;;13.40;30.20;;;;;;5073138;28;20485;-57
2023/03/20 12:06:19;;;;;;;13.37;12.57;;;13.50;30.00;;;;;;5077887;28;20401;-57
2023/03/20 12:09:11;;;;;;;12.83;12.13;;;13.40;29.60;;;;;;5071216;28;20414;-57
2023/03/20 12:12:06;;;;;;;15.90;14.90;;;13.40;29.70;;;;;;5072970;28;20960;-57
2023/03/20 12:14:49;;;;;;;15.30;14.30;;;13.50;29.50;;;;;;5070645;28;20416;-58
2023/03/20 12:17:33;;;;;;;13.17;12.47;;;13.50;29.30;;;;;;5072397;28;20938;-57
2023/03/20 12:20:11;;;;;;;15.73;14.87;;;13.50;28.90;;;;;;5058254;28;20434;-56
2023/03/20 12:22:48;;;;;;;13.50;12.70;;;13.50;29.40;;;;;;5073181;28;20564;-57
2023/03/20 12:25:38;;;;;;;12.20;11.60;;;13.50;28.80;;;;;;5073268;28;20427;-57
2023/03/20 12:28:09;;;;;;;11.73;11.13;;;13.40;29.30;;;;;;5070932;28;20466;-56
2023/03/20 12:31:16;;;;;;;12.67;12.07;;;13.50;29.40;;;;;;5072466;28;20493;-56
2023/03/20 12:34:01;;;;;;;14.47;13.67;;;13.50;29.00;;;;;;5069504;28;20424;-55
2023/03/20 12:36:38;;;;;;;11.70;10.97;;;13.60;28.50;;;;;;5069938;28;20455;-56
2023/03/20 12:39:10;;;;;;;12.27;11.67;;;13.60;28.00;;;;;;5071567;28;20408;-55
2023/03/20 12:42:13;;;;;;;12.30;11.70;;;13.60;27.80;;;;;;5073144;28;20428;-55
2023/03/20 12:44:57;;;;;;;12.17;11.40;;;13.60;27.70;;;;;;5037830;28;20424;-55
2023/03/20 12:47:54;;;;;;;11.47;10.83;;;13.50;27.90;;;;;;5073571;28;20416;-56
2023/03/20 12:50:44;;;;;;;11.10;10.50;;;13.60;27.60;;;;;;5073272;28;20405;-55
2023/03/20 12:53:39;;;;;;;29.60;27.13;;;13.50;27.70;;;;;;5073389;28;20783;-56
2023/03/20 12:56:05;;;;;;;11.57;10.97;;;13.50;27.80;;;;;;5068934;28;20479;-56
2023/03/20 12:58:37;;;;;;;11.57;11.07;;;13.50;28.00;;;;;;5072732;28;20446;-56
2023/03/20 13:01:08;;;;;;;12.53;11.80;;;13.60;28.00;;;;;;5070298;28;20183;-57